sensor_id;sensor_type;location;lat;lon;timestamp;P1;durP1;ratioP1;P2;durP2;ratioP2
23800;SDS011;12081;48.614;10.226;2023-05-29T00:00:17;7.63;;;4.30;;
23800;SDS011;12081;48.614;10.226;2023-05-29T00:03:04;5.57;;;3.37;;
23800;SDS011;12081;48.614;10.226;2023-05-29T00:05:48;6.37;;;3.70;;
23800;SDS011;12081;48.614;10.226;2023-05-29T00:08:32;6.20;;;4.07;;
23800;SDS011;12081;48.614;10.226;2023-05-29T00:11:16;6.10;;;3.67;;
23800;SDS011;12081;48.614;10.226;2023-05-29T00:14:00;6.27;;;3.70;;
23800;SDS011;12081;48.614;10.226;2023-05-29T00:16:48;7.60;;;3.80;;
23800;SDS011;12081;48.614;10.226;2023-05-29T00:19:33;4.27;;;3.17;;
23800;SDS011;12081;48.614;10.226;2023-05-29T00:22:17;6.87;;;3.63;;
23800;SDS011;12081;48.614;10.226;2023-05-29T00:25:03;7.77;;;3.93;;
23800;SDS011;12081;48.614;10.226;2023-05-29T00:27:48;4.90;;;3.40;;
23800;SDS011;12081;48.614;10.226;2023-05-29T00:30:33;5.90;;;4.13;;
23800;SDS011;12081;48.614;10.226;2023-05-29T00:33:18;8.67;;;4.67;;
23800;SDS011;12081;48.614;10.226;2023-05-29T00:36:02;5.77;;;3.47;;
23800;SDS011;12081;48.614;10.226;2023-05-29T00:38:46;7.63;;;4.10;;
23800;SDS011;12081;48.614;10.226;2023-05-29T00:41:30;6.70;;;4.10;;
23800;SDS011;12081;48.614;10.226;2023-05-29T00:44:14;6.07;;;4.00;;
23800;SDS011;12081;48.614;10.226;2023-05-29T00:46:58;6.23;;;4.00;;
23800;SDS011;12081;48.614;10.226;2023-05-29T00:49:42;6.80;;;3.93;;
23800;SDS011;12081;48.614;10.226;2023-05-29T00:52:27;5.47;;;3.73;;
23800;SDS011;12081;48.614;10.226;2023-05-29T00:55:11;5.07;;;3.60;;
23800;SDS011;12081;48.614;10.226;2023-05-29T00:57:57;6.70;;;3.53;;
23800;SDS011;12081;48.614;10.226;2023-05-29T01:00:41;5.93;;;3.60;;
23800;SDS011;12081;48.614;10.226;2023-05-29T01:03:26;5.77;;;3.90;;
23800;SDS011;12081;48.614;10.226;2023-05-29T01:06:12;5.67;;;3.83;;
23800;SDS011;12081;48.614;10.226;2023-05-29T01:08:56;8.73;;;3.90;;
23800;SDS011;12081;48.614;10.226;2023-05-29T01:11:58;7.07;;;3.40;;
23800;SDS011;12081;48.614;10.226;2023-05-29T01:21:12;7.03;;;3.97;;
23800;SDS011;12081;48.614;10.226;2023-05-29T01:27:30;5.23;;;3.53;;
23800;SDS011;12081;48.614;10.226;2023-05-29T01:30:16;7.07;;;3.60;;
23800;SDS011;12081;48.614;10.226;2023-05-29T01:33:02;10.57;;;3.93;;
23800;SDS011;12081;48.614;10.226;2023-05-29T01:35:47;4.83;;;3.50;;
23800;SDS011;12081;48.614;10.226;2023-05-29T01:38:31;4.87;;;3.50;;
23800;SDS011;12081;48.614;10.226;2023-05-29T01:41:15;4.70;;;3.80;;
23800;SDS011;12081;48.614;10.226;2023-05-29T01:44:01;7.87;;;3.50;;
23800;SDS011;12081;48.614;10.226;2023-05-29T01:46:51;9.40;;;3.50;;
23800;SDS011;12081;48.614;10.226;2023-05-29T01:49:36;5.73;;;3.13;;
23800;SDS011;12081;48.614;10.226;2023-05-29T01:52:22;8.90;;;3.80;;
23800;SDS011;12081;48.614;10.226;2023-05-29T01:55:07;7.03;;;3.67;;
23800;SDS011;12081;48.614;10.226;2023-05-29T01:57:51;5.73;;;3.40;;
23800;SDS011;12081;48.614;10.226;2023-05-29T02:00:37;5.50;;;3.57;;
23800;SDS011;12081;48.614;10.226;2023-05-29T02:03:21;6.47;;;3.90;;
23800;SDS011;12081;48.614;10.226;2023-05-29T02:06:07;7.93;;;3.10;;
23800;SDS011;12081;48.614;10.226;2023-05-29T02:08:51;5.63;;;3.60;;
23800;SDS011;12081;48.614;10.226;2023-05-29T02:11:35;5.23;;;3.47;;
23800;SDS011;12081;48.614;10.226;2023-05-29T02:14:19;5.63;;;3.70;;
23800;SDS011;12081;48.614;10.226;2023-05-29T02:17:03;6.57;;;3.83;;
23800;SDS011;12081;48.614;10.226;2023-05-29T02:19:47;7.53;;;3.83;;
23800;SDS011;12081;48.614;10.226;2023-05-29T02:22:32;5.47;;;3.77;;
23800;SDS011;12081;48.614;10.226;2023-05-29T02:25:16;7.73;;;3.97;;
23800;SDS011;12081;48.614;10.226;2023-05-29T02:28:00;8.57;;;4.00;;
23800;SDS011;12081;48.614;10.226;2023-05-29T02:30:44;8.43;;;3.60;;
23800;SDS011;12081;48.614;10.226;2023-05-29T02:33:28;6.57;;;3.80;;
23800;SDS011;12081;48.614;10.226;2023-05-29T02:36:13;8.33;;;4.43;;
23800;SDS011;12081;48.614;10.226;2023-05-29T02:38:57;8.57;;;3.87;;
23800;SDS011;12081;48.614;10.226;2023-05-29T04:33:17;6.73;;;4.17;;
23800;SDS011;12081;48.614;10.226;2023-05-29T04:36:02;7.93;;;4.20;;
23800;SDS011;12081;48.614;10.226;2023-05-29T04:38:48;7.97;;;4.20;;
23800;SDS011;12081;48.614;10.226;2023-05-29T04:41:34;7.10;;;4.10;;
23800;SDS011;12081;48.614;10.226;2023-05-29T04:44:19;7.23;;;4.57;;
23800;SDS011;12081;48.614;10.226;2023-05-29T04:47:03;7.60;;;4.30;;
23800;SDS011;12081;48.614;10.226;2023-05-29T04:49:48;6.93;;;4.67;;
23800;SDS011;12081;48.614;10.226;2023-05-29T04:52:38;6.40;;;3.77;;
23800;SDS011;12081;48.614;10.226;2023-05-29T04:55:23;6.70;;;3.83;;
23800;SDS011;12081;48.614;10.226;2023-05-29T04:58:10;7.90;;;4.70;;
23800;SDS011;12081;48.614;10.226;2023-05-29T05:03:32;8.20;;;4.37;;
23800;SDS011;12081;48.614;10.226;2023-05-29T05:06:20;7.90;;;4.03;;
23800;SDS011;12081;48.614;10.226;2023-05-29T05:09:05;7.20;;;4.67;;
23800;SDS011;12081;48.614;10.226;2023-05-29T05:11:49;8.00;;;4.47;;
23800;SDS011;12081;48.614;10.226;2023-05-29T05:14:34;7.57;;;4.60;;
23800;SDS011;12081;48.614;10.226;2023-05-29T05:17:18;6.87;;;4.17;;
23800;SDS011;12081;48.614;10.226;2023-05-29T05:20:03;6.43;;;4.20;;
23800;SDS011;12081;48.614;10.226;2023-05-29T05:22:49;7.07;;;4.47;;
23800;SDS011;12081;48.614;10.226;2023-05-29T05:25:34;8.53;;;4.13;;
23800;SDS011;12081;48.614;10.226;2023-05-29T05:28:19;8.67;;;4.27;;
23800;SDS011;12081;48.614;10.226;2023-05-29T05:31:03;10.40;;;4.23;;
23800;SDS011;12081;48.614;10.226;2023-05-29T05:33:47;7.07;;;4.40;;
23800;SDS011;12081;48.614;10.226;2023-05-29T05:36:31;7.33;;;4.40;;
23800;SDS011;12081;48.614;10.226;2023-05-29T05:39:16;7.27;;;4.20;;
23800;SDS011;12081;48.614;10.226;2023-05-29T05:42:01;11.23;;;4.27;;
23800;SDS011;12081;48.614;10.226;2023-05-29T05:44:46;6.77;;;4.17;;
23800;SDS011;12081;48.614;10.226;2023-05-29T05:47:32;7.03;;;3.93;;
23800;SDS011;12081;48.614;10.226;2023-05-29T05:50:16;7.73;;;3.83;;
23800;SDS011;12081;48.614;10.226;2023-05-29T05:53:00;7.37;;;3.70;;
23800;SDS011;12081;48.614;10.226;2023-05-29T05:55:44;11.60;;;4.20;;
23800;SDS011;12081;48.614;10.226;2023-05-29T05:58:29;6.10;;;4.10;;
23800;SDS011;12081;48.614;10.226;2023-05-29T06:01:13;8.33;;;4.07;;
23800;SDS011;12081;48.614;10.226;2023-05-29T06:03:58;7.60;;;3.87;;
23800;SDS011;12081;48.614;10.226;2023-05-29T06:06:42;6.90;;;3.87;;
23800;SDS011;12081;48.614;10.226;2023-05-29T06:09:26;6.63;;;4.30;;
23800;SDS011;12081;48.614;10.226;2023-05-29T06:12:11;9.17;;;4.40;;
23800;SDS011;12081;48.614;10.226;2023-05-29T06:14:55;7.27;;;3.83;;
23800;SDS011;12081;48.614;10.226;2023-05-29T06:17:39;8.13;;;4.07;;
23800;SDS011;12081;48.614;10.226;2023-05-29T06:20:24;4.80;;;3.27;;
23800;SDS011;12081;48.614;10.226;2023-05-29T06:23:08;7.83;;;3.43;;
23800;SDS011;12081;48.614;10.226;2023-05-29T06:25:53;7.13;;;4.00;;
23800;SDS011;12081;48.614;10.226;2023-05-29T06:28:37;8.23;;;3.93;;
23800;SDS011;12081;48.614;10.226;2023-05-29T06:31:21;8.47;;;4.23;;
23800;SDS011;12081;48.614;10.226;2023-05-29T06:34:05;4.77;;;3.47;;
23800;SDS011;12081;48.614;10.226;2023-05-29T06:36:50;7.27;;;4.40;;
23800;SDS011;12081;48.614;10.226;2023-05-29T06:39:34;8.50;;;4.30;;
23800;SDS011;12081;48.614;10.226;2023-05-29T06:42:19;5.93;;;3.80;;
23800;SDS011;12081;48.614;10.226;2023-05-29T06:45:03;5.57;;;3.67;;
23800;SDS011;12081;48.614;10.226;2023-05-29T06:47:47;6.13;;;3.97;;
23800;SDS011;12081;48.614;10.226;2023-05-29T06:50:32;4.93;;;3.63;;
23800;SDS011;12081;48.614;10.226;2023-05-29T06:53:17;7.43;;;3.87;;
23800;SDS011;12081;48.614;10.226;2023-05-29T06:56:01;7.53;;;3.90;;
23800;SDS011;12081;48.614;10.226;2023-05-29T06:58:45;8.67;;;4.50;;
23800;SDS011;12081;48.614;10.226;2023-05-29T07:01:30;6.90;;;4.10;;
23800;SDS011;12081;48.614;10.226;2023-05-29T07:04:14;8.63;;;3.90;;
23800;SDS011;12081;48.614;10.226;2023-05-29T07:06:58;7.97;;;3.87;;
23800;SDS011;12081;48.614;10.226;2023-05-29T07:09:42;5.67;;;3.67;;
23800;SDS011;12081;48.614;10.226;2023-05-29T07:12:26;7.90;;;3.93;;
23800;SDS011;12081;48.614;10.226;2023-05-29T07:15:11;4.60;;;3.53;;
23800;SDS011;12081;48.614;10.226;2023-05-29T07:17:55;5.68;;;3.95;;
23800;SDS011;12081;48.614;10.226;2023-05-29T07:20:39;6.65;;;4.25;;
23800;SDS011;12081;48.614;10.226;2023-05-29T07:23:24;7.32;;;4.00;;
23800;SDS011;12081;48.614;10.226;2023-05-29T07:26:08;6.80;;;3.95;;
23800;SDS011;12081;48.614;10.226;2023-05-29T07:28:52;6.43;;;4.03;;
23800;SDS011;12081;48.614;10.226;2023-05-29T07:31:36;7.35;;;3.80;;
23800;SDS011;12081;48.614;10.226;2023-05-29T07:34:20;6.30;;;4.10;;
23800;SDS011;12081;48.614;10.226;2023-05-29T07:37:05;5.68;;;3.58;;
23800;SDS011;12081;48.614;10.226;2023-05-29T07:39:52;5.97;;;3.95;;
23800;SDS011;12081;48.614;10.226;2023-05-29T07:42:36;6.03;;;4.30;;
23800;SDS011;12081;48.614;10.226;2023-05-29T07:45:20;5.88;;;4.00;;
23800;SDS011;12081;48.614;10.226;2023-05-29T07:48:04;6.68;;;4.10;;
23800;SDS011;12081;48.614;10.226;2023-05-29T07:50:48;6.55;;;4.13;;
23800;SDS011;12081;48.614;10.226;2023-05-29T07:53:32;6.00;;;4.15;;
23800;SDS011;12081;48.614;10.226;2023-05-29T07:56:16;5.88;;;3.80;;
23800;SDS011;12081;48.614;10.226;2023-05-29T07:59:00;6.78;;;4.20;;
23800;SDS011;12081;48.614;10.226;2023-05-29T08:01:45;5.20;;;4.05;;
23800;SDS011;12081;48.614;10.226;2023-05-29T08:04:29;8.60;;;4.15;;
23800;SDS011;12081;48.614;10.226;2023-05-29T08:07:14;6.70;;;4.15;;
23800;SDS011;12081;48.614;10.226;2023-05-29T08:09:58;6.00;;;3.70;;
23800;SDS011;12081;48.614;10.226;2023-05-29T08:12:42;6.63;;;3.95;;
23800;SDS011;12081;48.614;10.226;2023-05-29T08:15:26;5.57;;;4.15;;
23800;SDS011;12081;48.614;10.226;2023-05-29T08:18:10;5.95;;;4.18;;
23800;SDS011;12081;48.614;10.226;2023-05-29T08:20:54;7.13;;;3.88;;
23800;SDS011;12081;48.614;10.226;2023-05-29T08:23:38;5.47;;;3.90;;
23800;SDS011;12081;48.614;10.226;2023-05-29T08:26:23;7.47;;;4.03;;
23800;SDS011;12081;48.614;10.226;2023-05-29T08:29:07;9.90;;;4.18;;
23800;SDS011;12081;48.614;10.226;2023-05-29T08:31:51;4.93;;;3.75;;
23800;SDS011;12081;48.614;10.226;2023-05-29T08:34:36;7.47;;;4.18;;
23800;SDS011;12081;48.614;10.226;2023-05-29T08:37:20;6.57;;;4.45;;
23800;SDS011;12081;48.614;10.226;2023-05-29T08:40:04;5.75;;;3.90;;
23800;SDS011;12081;48.614;10.226;2023-05-29T08:42:56;5.95;;;3.85;;
23800;SDS011;12081;48.614;10.226;2023-05-29T08:45:43;5.85;;;3.83;;
23800;SDS011;12081;48.614;10.226;2023-05-29T08:48:29;6.32;;;4.18;;
23800;SDS011;12081;48.614;10.226;2023-05-29T08:51:13;6.47;;;4.00;;
23800;SDS011;12081;48.614;10.226;2023-05-29T08:53:58;4.47;;;3.47;;
23800;SDS011;12081;48.614;10.226;2023-05-29T08:56:43;5.82;;;3.80;;
23800;SDS011;12081;48.614;10.226;2023-05-29T08:59:27;4.30;;;3.45;;
23800;SDS011;12081;48.614;10.226;2023-05-29T09:02:13;4.53;;;3.30;;
23800;SDS011;12081;48.614;10.226;2023-05-29T09:04:58;6.97;;;3.50;;
23800;SDS011;12081;48.614;10.226;2023-05-29T09:07:42;8.52;;;4.10;;
23800;SDS011;12081;48.614;10.226;2023-05-29T09:10:27;6.45;;;3.50;;
23800;SDS011;12081;48.614;10.226;2023-05-29T09:13:11;7.55;;;3.42;;
23800;SDS011;12081;48.614;10.226;2023-05-29T09:15:57;4.78;;;3.25;;
23800;SDS011;12081;48.614;10.226;2023-05-29T09:18:42;5.45;;;2.97;;
23800;SDS011;12081;48.614;10.226;2023-05-29T09:21:30;6.30;;;3.03;;
23800;SDS011;12081;48.614;10.226;2023-05-29T09:24:17;6.47;;;3.10;;
23800;SDS011;12081;48.614;10.226;2023-05-29T09:27:02;8.57;;;3.22;;
23800;SDS011;12081;48.614;10.226;2023-05-29T09:29:55;6.32;;;2.60;;
23800;SDS011;12081;48.614;10.226;2023-05-29T09:32:39;4.85;;;2.95;;
23800;SDS011;12081;48.614;10.226;2023-05-29T09:35:23;5.60;;;2.85;;
23800;SDS011;12081;48.614;10.226;2023-05-29T09:38:08;5.25;;;3.30;;
23800;SDS011;12081;48.614;10.226;2023-05-29T09:40:54;4.97;;;2.80;;
23800;SDS011;12081;48.614;10.226;2023-05-29T09:43:42;4.35;;;2.75;;
23800;SDS011;12081;48.614;10.226;2023-05-29T09:46:33;5.07;;;2.95;;
23800;SDS011;12081;48.614;10.226;2023-05-29T09:49:18;5.65;;;2.90;;
23800;SDS011;12081;48.614;10.226;2023-05-29T09:52:06;5.82;;;2.78;;
23800;SDS011;12081;48.614;10.226;2023-05-29T09:54:52;3.63;;;2.65;;
23800;SDS011;12081;48.614;10.226;2023-05-29T09:57:36;4.32;;;2.70;;
23800;SDS011;12081;48.614;10.226;2023-05-29T10:00:21;4.40;;;2.40;;
23800;SDS011;12081;48.614;10.226;2023-05-29T10:03:05;4.80;;;3.08;;
23800;SDS011;12081;48.614;10.226;2023-05-29T10:05:50;5.75;;;2.83;;
23800;SDS011;12081;48.614;10.226;2023-05-29T10:08:35;3.95;;;2.60;;
23800;SDS011;12081;48.614;10.226;2023-05-29T10:11:24;4.88;;;2.38;;
23800;SDS011;12081;48.614;10.226;2023-05-29T10:14:17;3.72;;;2.45;;
23800;SDS011;12081;48.614;10.226;2023-05-29T10:17:03;3.15;;;2.85;;
23800;SDS011;12081;48.614;10.226;2023-05-29T10:19:52;6.93;;;2.65;;
23800;SDS011;12081;48.614;10.226;2023-05-29T10:22:39;3.38;;;2.30;;
23800;SDS011;12081;48.614;10.226;2023-05-29T10:25:32;6.40;;;2.80;;
23800;SDS011;12081;48.614;10.226;2023-05-29T10:28:22;5.15;;;3.20;;
23800;SDS011;12081;48.614;10.226;2023-05-29T10:31:08;3.70;;;2.30;;
23800;SDS011;12081;48.614;10.226;2023-05-29T10:36:44;4.40;;;3.15;;
23800;SDS011;12081;48.614;10.226;2023-05-29T10:39:33;4.45;;;2.75;;
23800;SDS011;12081;48.614;10.226;2023-05-29T10:42:40;4.03;;;2.63;;
23800;SDS011;12081;48.614;10.226;2023-05-29T10:51:05;4.07;;;2.65;;
23800;SDS011;12081;48.614;10.226;2023-05-29T10:53:53;2.92;;;2.70;;
23800;SDS011;12081;48.614;10.226;2023-05-29T10:56:38;4.47;;;2.63;;
23800;SDS011;12081;48.614;10.226;2023-05-29T10:59:23;4.60;;;3.10;;
23800;SDS011;12081;48.614;10.226;2023-05-29T11:02:16;4.05;;;2.88;;
23800;SDS011;12081;48.614;10.226;2023-05-29T11:08:05;5.30;;;2.72;;
23800;SDS011;12081;48.614;10.226;2023-05-29T11:13:37;4.28;;;2.95;;
23800;SDS011;12081;48.614;10.226;2023-05-29T11:19:08;5.68;;;2.97;;
23800;SDS011;12081;48.614;10.226;2023-05-29T11:21:58;3.72;;;2.60;;
23800;SDS011;12081;48.614;10.226;2023-05-29T11:24:50;5.32;;;3.20;;
23800;SDS011;12081;48.614;10.226;2023-05-29T11:27:35;4.00;;;2.85;;
23800;SDS011;12081;48.614;10.226;2023-05-29T11:30:19;3.40;;;2.85;;
23800;SDS011;12081;48.614;10.226;2023-05-29T11:33:04;4.88;;;2.88;;
23800;SDS011;12081;48.614;10.226;2023-05-29T11:35:58;7.60;;;3.10;;
23800;SDS011;12081;48.614;10.226;2023-05-29T11:38:43;5.15;;;2.75;;
23800;SDS011;12081;48.614;10.226;2023-05-29T11:41:27;3.72;;;2.50;;
23800;SDS011;12081;48.614;10.226;2023-05-29T11:44:13;5.35;;;2.40;;
23800;SDS011;12081;48.614;10.226;2023-05-29T11:47:01;4.75;;;2.70;;
23800;SDS011;12081;48.614;10.226;2023-05-29T11:49:49;3.63;;;2.58;;
23800;SDS011;12081;48.614;10.226;2023-05-29T11:52:33;3.63;;;2.53;;
23800;SDS011;12081;48.614;10.226;2023-05-29T11:55:18;5.45;;;2.70;;
23800;SDS011;12081;48.614;10.226;2023-05-29T11:58:04;3.13;;;2.80;;
23800;SDS011;12081;48.614;10.226;2023-05-29T12:00:48;6.75;;;2.55;;
23800;SDS011;12081;48.614;10.226;2023-05-29T12:03:41;3.38;;;3.00;;
23800;SDS011;12081;48.614;10.226;2023-05-29T12:06:31;7.47;;;3.05;;
23800;SDS011;12081;48.614;10.226;2023-05-29T12:09:27;4.90;;;2.90;;
23800;SDS011;12081;48.614;10.226;2023-05-29T12:12:13;2.88;;;2.47;;
23800;SDS011;12081;48.614;10.226;2023-05-29T12:14:57;6.05;;;2.92;;
23800;SDS011;12081;48.614;10.226;2023-05-29T12:17:41;4.30;;;2.80;;
23800;SDS011;12081;48.614;10.226;2023-05-29T12:20:26;3.55;;;2.55;;
23800;SDS011;12081;48.614;10.226;2023-05-29T12:23:10;3.05;;;2.58;;
23800;SDS011;12081;48.614;10.226;2023-05-29T12:25:56;3.88;;;2.85;;
23800;SDS011;12081;48.614;10.226;2023-05-29T12:28:44;3.67;;;2.72;;
23800;SDS011;12081;48.614;10.226;2023-05-29T12:31:29;2.95;;;2.58;;
23800;SDS011;12081;48.614;10.226;2023-05-29T12:34:15;4.35;;;2.90;;
23800;SDS011;12081;48.614;10.226;2023-05-29T12:37:07;3.83;;;2.70;;
23800;SDS011;12081;48.614;10.226;2023-05-29T12:40:08;5.90;;;2.75;;
23800;SDS011;12081;48.614;10.226;2023-05-29T12:45:39;4.13;;;3.00;;
23800;SDS011;12081;48.614;10.226;2023-05-29T12:48:27;4.22;;;2.90;;
23800;SDS011;12081;48.614;10.226;2023-05-29T12:51:11;3.97;;;3.00;;
23800;SDS011;12081;48.614;10.226;2023-05-29T12:53:56;5.00;;;2.60;;
23800;SDS011;12081;48.614;10.226;2023-05-29T12:56:42;3.85;;;2.95;;
23800;SDS011;12081;48.614;10.226;2023-05-29T12:59:26;4.13;;;2.55;;
23800;SDS011;12081;48.614;10.226;2023-05-29T13:02:10;3.33;;;2.80;;
23800;SDS011;12081;48.614;10.226;2023-05-29T13:04:54;4.03;;;2.72;;
23800;SDS011;12081;48.614;10.226;2023-05-29T13:07:38;4.43;;;3.03;;
23800;SDS011;12081;48.614;10.226;2023-05-29T13:10:23;4.32;;;2.78;;
23800;SDS011;12081;48.614;10.226;2023-05-29T13:13:08;4.22;;;3.00;;
23800;SDS011;12081;48.614;10.226;2023-05-29T13:15:53;4.78;;;2.85;;
23800;SDS011;12081;48.614;10.226;2023-05-29T13:18:37;3.08;;;2.55;;
23800;SDS011;12081;48.614;10.226;2023-05-29T13:21:21;3.65;;;2.92;;
23800;SDS011;12081;48.614;10.226;2023-05-29T13:24:05;3.40;;;2.90;;
23800;SDS011;12081;48.614;10.226;2023-05-29T13:26:50;3.28;;;2.90;;
23800;SDS011;12081;48.614;10.226;2023-05-29T13:29:34;4.47;;;3.03;;
23800;SDS011;12081;48.614;10.226;2023-05-29T13:32:19;4.57;;;2.83;;
23800;SDS011;12081;48.614;10.226;2023-05-29T13:35:03;3.35;;;2.80;;
23800;SDS011;12081;48.614;10.226;2023-05-29T13:37:49;4.80;;;3.10;;
23800;SDS011;12081;48.614;10.226;2023-05-29T13:40:33;3.47;;;2.90;;
23800;SDS011;12081;48.614;10.226;2023-05-29T13:43:17;6.43;;;3.50;;
23800;SDS011;12081;48.614;10.226;2023-05-29T13:46:01;4.40;;;2.85;;
23800;SDS011;12081;48.614;10.226;2023-05-29T13:48:49;3.95;;;3.10;;
23800;SDS011;12081;48.614;10.226;2023-05-29T13:51:33;4.43;;;2.80;;
23800;SDS011;12081;48.614;10.226;2023-05-29T13:54:20;4.80;;;2.92;;
23800;SDS011;12081;48.614;10.226;2023-05-29T13:57:06;3.58;;;2.75;;
23800;SDS011;12081;48.614;10.226;2023-05-29T13:59:53;4.55;;;3.10;;
23800;SDS011;12081;48.614;10.226;2023-05-29T14:02:37;4.65;;;2.53;;
23800;SDS011;12081;48.614;10.226;2023-05-29T14:05:24;6.00;;;2.90;;
23800;SDS011;12081;48.614;10.226;2023-05-29T14:08:11;3.47;;;2.90;;
23800;SDS011;12081;48.614;10.226;2023-05-29T14:10:56;4.72;;;3.35;;
23800;SDS011;12081;48.614;10.226;2023-05-29T14:13:40;6.45;;;3.15;;
23800;SDS011;12081;48.614;10.226;2023-05-29T14:16:24;3.80;;;2.60;;
23800;SDS011;12081;48.614;10.226;2023-05-29T14:19:07;4.40;;;2.60;;
23800;SDS011;12081;48.614;10.226;2023-05-29T14:21:52;3.83;;;2.50;;
23800;SDS011;12081;48.614;10.226;2023-05-29T14:24:36;3.38;;;2.70;;
23800;SDS011;12081;48.614;10.226;2023-05-29T14:27:20;6.07;;;3.00;;
23800;SDS011;12081;48.614;10.226;2023-05-29T14:30:04;4.88;;;2.83;;
23800;SDS011;12081;48.614;10.226;2023-05-29T14:32:49;4.05;;;3.30;;
23800;SDS011;12081;48.614;10.226;2023-05-29T14:35:33;5.05;;;2.97;;
23800;SDS011;12081;48.614;10.226;2023-05-29T14:38:21;2.85;;;2.55;;
23800;SDS011;12081;48.614;10.226;2023-05-29T14:41:06;4.57;;;3.03;;
23800;SDS011;12081;48.614;10.226;2023-05-29T14:43:50;4.72;;;2.65;;
23800;SDS011;12081;48.614;10.226;2023-05-29T14:46:35;3.08;;;2.78;;
23800;SDS011;12081;48.614;10.226;2023-05-29T14:49:19;6.05;;;2.80;;
23800;SDS011;12081;48.614;10.226;2023-05-29T14:52:04;3.17;;;2.50;;
23800;SDS011;12081;48.614;10.226;2023-05-29T14:54:52;3.25;;;2.63;;
23800;SDS011;12081;48.614;10.226;2023-05-29T14:57:36;3.78;;;2.63;;
23800;SDS011;12081;48.614;10.226;2023-05-29T15:00:20;2.95;;;2.63;;
23800;SDS011;12081;48.614;10.226;2023-05-29T15:03:04;4.60;;;2.83;;
23800;SDS011;12081;48.614;10.226;2023-05-29T15:05:49;4.55;;;2.75;;
23800;SDS011;12081;48.614;10.226;2023-05-29T15:08:33;3.53;;;3.03;;
23800;SDS011;12081;48.614;10.226;2023-05-29T15:11:20;5.50;;;2.70;;
23800;SDS011;12081;48.614;10.226;2023-05-29T15:14:06;4.40;;;3.00;;
23800;SDS011;12081;48.614;10.226;2023-05-29T15:16:50;6.35;;;3.08;;
23800;SDS011;12081;48.614;10.226;2023-05-29T15:19:34;3.25;;;2.60;;
23800;SDS011;12081;48.614;10.226;2023-05-29T15:22:18;6.35;;;5.65;;
23800;SDS011;12081;48.614;10.226;2023-05-29T15:25:02;5.97;;;4.65;;
23800;SDS011;12081;48.614;10.226;2023-05-29T15:27:47;5.28;;;4.78;;
23800;SDS011;12081;48.614;10.226;2023-05-29T15:30:31;3.65;;;3.30;;
23800;SDS011;12081;48.614;10.226;2023-05-29T15:33:15;5.07;;;4.57;;
23800;SDS011;12081;48.614;10.226;2023-05-29T15:35:59;4.47;;;3.47;;
23800;SDS011;12081;48.614;10.226;2023-05-29T15:38:46;6.35;;;3.67;;
23800;SDS011;12081;48.614;10.226;2023-05-29T15:41:35;3.63;;;3.05;;
23800;SDS011;12081;48.614;10.226;2023-05-29T15:44:19;3.55;;;2.95;;
23800;SDS011;12081;48.614;10.226;2023-05-29T15:47:03;3.53;;;3.20;;
23800;SDS011;12081;48.614;10.226;2023-05-29T15:49:48;3.85;;;2.90;;
23800;SDS011;12081;48.614;10.226;2023-05-29T15:52:33;5.68;;;3.17;;
23800;SDS011;12081;48.614;10.226;2023-05-29T15:55:17;5.32;;;2.92;;
23800;SDS011;12081;48.614;10.226;2023-05-29T15:58:01;5.90;;;2.90;;
23800;SDS011;12081;48.614;10.226;2023-05-29T16:00:45;4.07;;;2.50;;
23800;SDS011;12081;48.614;10.226;2023-05-29T16:03:29;3.33;;;2.53;;
23800;SDS011;12081;48.614;10.226;2023-05-29T16:06:14;3.13;;;2.67;;
23800;SDS011;12081;48.614;10.226;2023-05-29T16:08:59;3.63;;;2.65;;
23800;SDS011;12081;48.614;10.226;2023-05-29T16:11:43;4.57;;;2.63;;
23800;SDS011;12081;48.614;10.226;2023-05-29T16:14:27;6.13;;;3.40;;
23800;SDS011;12081;48.614;10.226;2023-05-29T16:17:11;4.30;;;3.20;;
23800;SDS011;12081;48.614;10.226;2023-05-29T16:19:55;6.38;;;3.00;;
23800;SDS011;12081;48.614;10.226;2023-05-29T16:22:40;3.47;;;2.70;;
23800;SDS011;12081;48.614;10.226;2023-05-29T16:25:24;4.20;;;2.45;;
23800;SDS011;12081;48.614;10.226;2023-05-29T16:28:08;3.95;;;2.63;;
23800;SDS011;12081;48.614;10.226;2023-05-29T16:30:52;3.72;;;2.60;;
23800;SDS011;12081;48.614;10.226;2023-05-29T16:33:36;3.95;;;2.85;;
23800;SDS011;12081;48.614;10.226;2023-05-29T16:36:20;4.15;;;2.50;;
23800;SDS011;12081;48.614;10.226;2023-05-29T16:39:05;3.40;;;2.70;;
23800;SDS011;12081;48.614;10.226;2023-05-29T16:41:50;4.60;;;2.30;;
23800;SDS011;12081;48.614;10.226;2023-05-29T16:44:34;4.25;;;2.88;;
23800;SDS011;12081;48.614;10.226;2023-05-29T16:47:18;3.90;;;2.50;;
23800;SDS011;12081;48.614;10.226;2023-05-29T16:50:03;3.58;;;2.72;;
23800;SDS011;12081;48.614;10.226;2023-05-29T16:52:48;5.00;;;2.60;;
23800;SDS011;12081;48.614;10.226;2023-05-29T16:55:32;3.55;;;2.53;;
23800;SDS011;12081;48.614;10.226;2023-05-29T16:58:16;3.33;;;2.85;;
23800;SDS011;12081;48.614;10.226;2023-05-29T17:01:02;3.67;;;2.97;;
23800;SDS011;12081;48.614;10.226;2023-05-29T17:03:47;3.15;;;2.40;;
23800;SDS011;12081;48.614;10.226;2023-05-29T17:06:30;4.97;;;2.58;;
23800;SDS011;12081;48.614;10.226;2023-05-29T17:09:14;4.28;;;2.78;;
23800;SDS011;12081;48.614;10.226;2023-05-29T17:11:59;6.00;;;3.33;;
23800;SDS011;12081;48.614;10.226;2023-05-29T17:14:43;5.20;;;2.45;;
23800;SDS011;12081;48.614;10.226;2023-05-29T17:17:28;5.40;;;3.00;;
23800;SDS011;12081;48.614;10.226;2023-05-29T17:20:12;6.22;;;3.33;;
23800;SDS011;12081;48.614;10.226;2023-05-29T17:22:58;3.88;;;3.33;;
23800;SDS011;12081;48.614;10.226;2023-05-29T17:25:42;3.70;;;2.85;;
23800;SDS011;12081;48.614;10.226;2023-05-29T17:28:26;6.05;;;2.92;;
23800;SDS011;12081;48.614;10.226;2023-05-29T17:31:10;4.65;;;2.85;;
23800;SDS011;12081;48.614;10.226;2023-05-29T17:33:56;4.55;;;2.97;;
23800;SDS011;12081;48.614;10.226;2023-05-29T17:36:40;4.70;;;2.95;;
23800;SDS011;12081;48.614;10.226;2023-05-29T17:39:24;3.55;;;2.92;;
23800;SDS011;12081;48.614;10.226;2023-05-29T17:42:08;5.20;;;3.30;;
23800;SDS011;12081;48.614;10.226;2023-05-29T17:44:53;6.18;;;2.83;;
23800;SDS011;12081;48.614;10.226;2023-05-29T17:47:37;5.65;;;2.92;;
23800;SDS011;12081;48.614;10.226;2023-05-29T17:50:22;5.57;;;3.53;;
23800;SDS011;12081;48.614;10.226;2023-05-29T17:53:06;6.18;;;3.33;;
23800;SDS011;12081;48.614;10.226;2023-05-29T17:55:50;5.10;;;3.42;;
23800;SDS011;12081;48.614;10.226;2023-05-29T17:58:34;5.15;;;3.17;;
23800;SDS011;12081;48.614;10.226;2023-05-29T18:01:19;5.10;;;3.55;;
23800;SDS011;12081;48.614;10.226;2023-05-29T18:04:03;4.47;;;3.58;;
23800;SDS011;12081;48.614;10.226;2023-05-29T18:06:47;4.75;;;3.17;;
23800;SDS011;12081;48.614;10.226;2023-05-29T18:09:31;6.97;;;3.80;;
23800;SDS011;12081;48.614;10.226;2023-05-29T18:12:16;4.45;;;3.67;;
23800;SDS011;12081;48.614;10.226;2023-05-29T18:15:00;5.40;;;3.58;;
23800;SDS011;12081;48.614;10.226;2023-05-29T18:17:44;4.55;;;3.10;;
23800;SDS011;12081;48.614;10.226;2023-05-29T18:20:29;5.55;;;3.55;;
23800;SDS011;12081;48.614;10.226;2023-05-29T18:23:13;4.35;;;3.47;;
23800;SDS011;12081;48.614;10.226;2023-05-29T18:25:57;6.70;;;3.90;;
23800;SDS011;12081;48.614;10.226;2023-05-29T18:28:41;6.28;;;3.97;;
23800;SDS011;12081;48.614;10.226;2023-05-29T18:31:26;3.97;;;3.42;;
23800;SDS011;12081;48.614;10.226;2023-05-29T18:34:10;5.13;;;3.75;;
23800;SDS011;12081;48.614;10.226;2023-05-29T18:36:54;3.70;;;3.05;;
23800;SDS011;12081;48.614;10.226;2023-05-29T18:39:38;3.63;;;3.28;;
23800;SDS011;12081;48.614;10.226;2023-05-29T18:42:22;4.00;;;3.50;;